• Join FlightAware (Why Join?)
  • Login
  • US Flag 
Rudolph Flight #1: Scheduled 
07:40PM EST


 

Airport Tracker/Info


-or-


 

Live Flight TrackerFlight Track Log ✈ FLG4262 ✈ 14-Apr-2014 ✈ KDTW - KBGM

Flight Track Log - Related Links

Times and Time Zones

All times are in EDT time to prevent confusion due to time zone crossing. See the FLG4262 flight status page for this flight to view local times or setup timezone preferences in your user account.

Time Position Orientation Groundspeed Altitude Reporting Facility
EDT Latitude Longitude Course Direction KTS MPH feet Rate Location/Type
04:33PM 42.2031 -83.3525 155° Southeast 162 186 1,400  Level Cleveland Center
04:35PM 42.1172 -83.2983 155° Southeast 291 335 6,100 2,700 Climbing Cleveland Center
04:36PM 42.0781 -83.2072 120° Southeast 289 333 8,900 2,460 Climbing Cleveland Center
04:37PM 42.1086 -83.0839 71° East 343 395 11,300 1,980 Climbing Cleveland Center
04:38PM 42.1722 -82.9911 47° Northeast 355 409 13,000 1,020 Climbing Cleveland Center
04:39PM 42.2358 -82.8278 62° Northeast 416 479 13,500 720 Climbing Cleveland Center
04:40PM 42.2886 -82.6769 65° Northeast 437 503 14,500 960 Climbing Cleveland Center
04:41PM 42.3442 -82.5225 64° Northeast 454 522 15,500 960 Climbing Cleveland Center
04:42PM 42.3642 -82.3556 81° East 461 531 16,500 840 Climbing Cleveland Center
04:43PM 42.3578 -82.1842 93° East 457 526 17,300 1,020 Climbing Cleveland Center
04:44PM 42.3500 -81.9897 93° East 459 528 18,700 1,140 Climbing Cleveland Center
04:45PM 42.3419 -81.8147 94° East 459 528 19,700 780 Climbing Cleveland Center
04:46PM 42.3342 -81.6381 93° East 463 533 20,400 660 Climbing Cleveland Center
04:47PM 42.3250 -81.4592 94° East 469 540 21,100 660 Climbing Cleveland Center
04:48PM 42.3164 -81.2772 94° East 473 544 21,800 660 Climbing Cleveland Center
04:49PM 42.3064 -81.0950 94° East 478 550 22,500 960 Climbing Cleveland Center
04:50PM 42.2958 -80.8847 94° East 479 551 23,800 1,200 Climbing Cleveland Center
04:51PM 42.2858 -80.7097 94° East 468 539 25,000 780 Climbing Cleveland Center
04:52PM 42.2836 -80.5358 91° East 460 529 25,500 480 Climbing Cleveland Center
04:53PM 42.2836 -80.3525 90° East 476 548 26,000 480 Climbing Cleveland Center
04:54PM 42.2844 -80.1689 90° East 481 554 26,500 480 Climbing Cleveland Center
04:55PM 42.2839 -79.9681 90° East 485 558 27,000 240 Climbing Cleveland Center
04:56PM 42.2831 -79.7853 90° East 489 563 27,000  Level Cleveland Center
04:57PM 42.2822 -79.5978 90° East 500 575 27,000  Level Cleveland Center
04:58PM 42.2808 -79.4081 91° East 507 583 27,000  Level Cleveland Center
04:59PM 42.2800 -79.2167 90° East 509 586 27,000  Level Cleveland Center
05:00PM 42.2786 -78.9878 90° East 510 587 27,000  Level Cleveland Center
05:01PM 42.2772 -78.8047 91° East 496 571 27,000 -180 Level Cleveland Center
05:03PM 42.2742 -78.6192 91° East 496 571 26,700 -780 Descending Cleveland Center
05:04PM 42.2714 -78.4314 91° East 497 572 25,400 -1,980 Descending Cleveland Center
05:05PM 42.2678 -78.2428 91° East 503 579 22,700 -2,580 Descending Cleveland Center
05:06PM 42.2633 -78.0250 92° East 492 566 20,100 -2,040 Descending Cleveland Center
05:07PM 42.2603 -77.8514 91° East 472 543 18,600 -1,560 Descending Cleveland Center
05:08PM 42.2561 -77.6836 92° East 457 526 16,900 -840 Descending Cleveland Center
05:09PM 42.2525 -77.5164 92° East 454 522 16,900 -60 Level Cleveland Center
05:10PM 42.2489 -77.3489 92° East 453 521 16,800  Descending Cleveland Center
05:11PM 42.2442 -77.1469 92° East 453 521 16,900  Climbing Cleveland Center
05:12PM 42.2397 -76.9775 92° East 453 521 16,800 -1,320 Descending Cleveland Center
05:13PM 42.2356 -76.8106 92° East 450 518 14,200 -2,460 Descending Cleveland Center
05:14PM 42.2308 -76.6531 92° East 428 493 11,800 -1,800 Descending Cleveland Center
05:15PM 42.2256 -76.5044 93° East 406 467 10,500 -1,380 Descending Cleveland Center
05:16PM 42.2208 -76.3792 93° East 327 376 9,000 -2,040 Descending Cleveland Center
05:17PM 42.2392 -76.2478 79° East 324 373 6,300 -2,220 Descending Cleveland Center
05:18PM 42.2883 -76.1636 52° Northeast 292 336 4,500 -1,260 Descending Cleveland Center
05:19PM 42.2939 -76.0906 84° East 219 252 3,800 -540 Descending Cleveland Center
05:20PM 42.2792 -76.0389 111° Southeast 201 231 3,500 -600 Descending Cleveland Center
05:22PM 42.2311 -75.9492 126° Southeast 159 183 2,300 -720 Descending New York Center